Time;durP1;ratioP1;P1;durP2;ratioP2;P2;SDS_P1;SDS_P2;PMS_P1;PMS_P2;Temp;Humidity;BMP_temperature;BMP_pressure;BME280_temperature;BME280_humidity;BME280_pressure;Samples;Min_cycle;Max_cycle;Signal;HPM_P1;HPM_P2
2021/05/15 00:02:09;;;;;;;9.40;6.40;;;;;;;12.68;100.00;100555.12;1577767;90;21194;-82
2021/05/15 00:04:36;;;;;;;7.78;6.70;;;;;;;12.68;100.00;100561.16;1569331;91;21073;-83
2021/05/15 00:07:03;;;;;;;9.25;6.70;;;;;;;12.64;100.00;100551.94;1577910;90;21668;-80
2021/05/15 00:09:31;;;;;;;8.03;6.37;;;;;;;12.54;100.00;100544.03;1548040;91;21099;-82
2021/05/15 00:11:58;;;;;;;8.93;6.65;;;;;;;12.49;100.00;100542.30;1576069;89;21083;-81
2021/05/15 00:14:28;;;;;;;7.83;6.55;;;;;;;12.50;100.00;100540.53;1550715;90;21600;-83
2021/05/15 00:16:56;;;;;;;10.68;6.28;;;;;;;12.55;100.00;100540.96;1511892;93;21107;-84
2021/05/15 00:19:23;;;;;;;6.97;6.25;;;;;;;12.59;100.00;100535.34;1534964;92;21153;-83
2021/05/15 00:21:52;;;;;;;6.60;5.75;;;;;;;12.66;100.00;100533.02;1565546;91;21503;-82
2021/05/15 00:24:19;;;;;;;8.93;6.75;;;;;;;12.72;100.00;100529.06;1545749;91;21048;-81
2021/05/15 00:26:48;;;;;;;7.42;6.25;;;;;;;12.77;100.00;100529.52;1545076;92;21081;-81
2021/05/15 00:29:15;;;;;;;7.28;5.70;;;;;;;12.81;100.00;100532.69;1549446;91;21005;-81
2021/05/15 00:31:45;;;;;;;6.92;4.62;;;;;;;12.84;100.00;100534.56;1523934;92;21106;-82
2021/05/15 00:34:12;;;;;;;8.00;4.92;;;;;;;12.86;100.00;100528.70;1550754;91;21086;-84
2021/05/15 00:36:39;;;;;;;6.95;5.45;;;;;;;12.87;100.00;100532.16;1518907;91;21200;-82
2021/05/15 00:39:07;;;;;;;7.17;5.53;;;;;;;12.86;100.00;100533.92;1565195;90;21111;-83
2021/05/15 00:41:37;;;;;;;7.28;5.92;;;;;;;12.78;100.00;100536.37;1584073;89;21625;-84
2021/05/15 00:46:40;;;;;;;7.60;5.42;;;;;;;12.29;100.00;100547.43;1590666;89;21642;-82
2021/05/15 00:49:08;;;;;;;11.85;5.70;;;;;;;12.07;100.00;100551.45;1558715;91;21127;-81
2021/05/15 00:51:37;;;;;;;8.78;4.65;;;;;;;11.89;100.00;100549.39;1562810;90;21121;-82
2021/05/15 00:54:06;;;;;;;9.25;5.37;;;;;;;11.86;100.00;100552.23;1589925;89;21068;-82
2021/05/15 00:56:33;;;;;;;6.22;5.10;;;;;;;11.86;100.00;100549.63;1578403;89;21142;-82
2021/05/15 00:59:00;;;;;;;28.00;5.65;;;;;;;11.87;100.00;100548.68;1560025;90;21076;-83
2021/05/15 01:01:29;;;;;;;25.82;5.97;;;;;;;11.93;100.00;100556.48;1585659;89;21088;-82
2021/05/15 01:03:56;;;;;;;8.23;5.15;;;;;;;11.95;100.00;100560.62;1576492;89;21160;-80
2021/05/15 01:06:23;;;;;;;9.08;5.17;;;;;;;11.98;100.00;100560.38;1577546;90;21131;-81
2021/05/15 01:08:50;;;;;;;8.18;5.55;;;;;;;11.98;100.00;100568.22;1581742;89;21856;-81
2021/05/15 01:11:20;;;;;;;7.70;6.10;;;;;;;12.05;100.00;100574.27;1582991;90;21055;-82
2021/05/15 01:14:00;;;;;;;8.58;7.05;;;;;;;12.05;100.00;100575.56;1577543;91;21018;-82
2021/05/15 01:16:27;;;;;;;8.90;6.95;;;;;;;12.04;100.00;100588.26;1597530;89;21080;-83
2021/05/15 01:18:54;;;;;;;8.80;7.20;;;;;;;12.05;100.00;100582.09;1588530;89;21511;-81
2021/05/15 01:21:22;;;;;;;11.85;7.78;;;;;;;12.05;100.00;100579.48;1566397;90;21902;-84
2021/05/15 01:23:49;;;;;;;7.62;6.87;;;;;;;12.02;100.00;100582.33;1572875;89;21679;-82
2021/05/15 01:26:26;;;;;;;9.58;6.92;;;;;;;12.01;100.00;100579.36;1610261;88;21104;-84
2021/05/15 01:28:59;;;;;;;7.30;6.60;;;;;;;12.03;100.00;100578.77;1580123;89;21139;-80
2021/05/15 01:31:27;;;;;;;13.03;6.28;;;;;;;12.07;100.00;100578.85;1574281;89;21207;-82
2021/05/15 01:33:54;;;;;;;9.63;6.58;;;;;;;12.10;100.00;100578.12;1593976;88;21658;-81
2021/05/15 01:36:23;;;;;;;13.53;5.90;;;;;;;12.17;100.00;100573.23;1591209;89;21119;-81
2021/05/15 01:38:51;;;;;;;10.60;5.58;;;;;;;12.22;100.00;100581.50;1545316;91;21073;-81
2021/05/15 01:41:20;;;;;;;6.97;5.30;;;;;;;12.25;100.00;100568.20;1592640;89;21605;-81
2021/05/15 01:43:48;;;;;;;10.15;6.00;;;;;;;12.29;100.00;100572.70;1586844;89;21088;-83
2021/05/15 01:46:15;;;;;;;7.20;6.03;;;;;;;12.34;100.00;100565.78;1597059;89;21171;-82
2021/05/15 01:48:44;;;;;;;7.22;5.62;;;;;;;12.42;100.00;100560.75;1560390;91;21653;-81
2021/05/15 01:51:14;;;;;;;6.37;5.70;;;;;;;12.46;100.00;100564.28;1590857;90;21702;-82
2021/05/15 01:53:49;;;;;;;6.17;4.95;;;;;;;12.48;100.00;100561.53;1557163;91;21171;-83
2021/05/15 01:56:20;;;;;;;14.20;5.12;;;;;;;12.51;100.00;100562.59;1547791;90;21118;-83
2021/05/15 01:58:47;;;;;;;7.85;6.12;;;;;;;12.51;100.00;100554.76;1579253;90;21128;-82
2021/05/15 02:01:14;;;;;;;6.97;5.47;;;;;;;12.53;100.00;100546.33;1576188;90;21025;-82
2021/05/15 02:03:44;;;;;;;6.17;5.40;;;;;;;12.51;100.00;100539.55;1570475;90;21092;-82
2021/05/15 02:06:11;;;;;;;5.67;5.10;;;;;;;12.39;100.00;100542.72;1587389;89;21025;-83
2021/05/15 02:08:41;;;;;;;8.48;5.30;;;;;;;12.31;100.00;100550.72;1586717;89;21084;-82
2021/05/15 02:11:09;;;;;;;7.90;4.45;;;;;;;12.27;100.00;100553.71;1590754;89;21136;-83
2021/05/15 02:13:36;;;;;;;8.88;4.83;;;;;;;12.24;100.00;100548.27;1556496;90;21120;-81
2021/05/15 02:16:05;;;;;;;10.90;5.17;;;;;;;12.17;100.00;100551.54;1606487;87;21644;-82
2021/05/15 02:18:33;;;;;;;7.85;5.03;;;;;;;12.11;100.00;100547.16;1604265;87;21549;-81
2021/05/15 02:21:00;;;;;;;6.20;4.37;;;;;;;12.03;100.00;100546.15;1569249;91;21699;-81
2021/05/15 02:23:27;;;;;;;7.97;4.65;;;;;;;12.01;100.00;100548.05;1567026;90;21097;-83
2021/05/15 02:25:54;;;;;;;4.85;4.35;;;;;;;11.98;100.00;100532.98;1601532;88;21081;-80
2021/05/15 02:28:22;;;;;;;8.25;4.65;;;;;;;11.98;100.00;100538.20;1556155;90;21106;-81
2021/05/15 02:30:50;;;;;;;16.32;5.40;;;;;;;11.98;100.00;100536.90;1567460;90;21634;-82
2021/05/15 02:33:17;;;;;;;14.38;5.30;;;;;;;12.02;100.00;100536.66;1555565;89;21622;-80
2021/05/15 02:35:45;;;;;;;14.40;6.58;;;;;;;12.08;100.00;100537.45;1604974;88;21242;-82
2021/05/15 02:38:14;;;;;;;8.33;4.55;;;;;;;12.12;100.00;100538.87;1592608;89;21098;-82
2021/05/15 02:40:42;;;;;;;9.85;4.65;;;;;;;12.17;100.00;100541.91;1565638;91;21133;-82
2021/05/15 02:43:09;;;;;;;19.65;5.72;;;;;;;12.19;100.00;100540.01;1579318;89;21088;-81
2021/05/15 02:45:37;;;;;;;6.50;5.17;;;;;;;12.21;100.00;100552.47;1579303;89;21075;-82
2021/05/15 02:48:05;;;;;;;27.05;6.35;;;;;;;12.20;100.00;100558.63;1601180;88;21107;-81
2021/05/15 02:50:32;;;;;;;12.80;4.87;;;;;;;12.17;100.00;100559.37;1576092;89;21135;-81
2021/05/15 02:52:59;;;;;;;7.67;5.35;;;;;;;12.20;100.00;100566.47;1577134;89;21087;-81
2021/05/15 02:55:27;;;;;;;12.40;5.20;;;;;;;12.21;100.00;100560.30;1567967;89;21089;-81
2021/05/15 02:57:54;;;;;;;6.72;4.67;;;;;;;12.23;100.00;100567.99;1580978;89;21068;-84
2021/05/15 03:00:24;;;;;;;7.30;5.30;;;;;;;12.24;100.00;100575.69;1569517;90;21148;-82
2021/05/15 03:02:52;;;;;;;9.53;6.45;;;;;;;12.27;100.00;100566.77;1567121;89;21087;-81
2021/05/15 03:05:23;;;;;;;8.85;5.78;;;;;;;12.33;100.00;100566.28;1579387;89;21068;-82
2021/05/15 03:07:51;;;;;;;8.63;5.72;;;;;;;12.41;100.00;100569.54;1553531;91;21088;-84
2021/05/15 03:10:23;;;;;;;7.15;6.08;;;;;;;12.43;100.00;100572.86;1587958;89;21120;-81
2021/05/15 03:12:56;;;;;;;7.28;6.40;;;;;;;12.46;100.00;100572.58;1595130;88;21088;-83
2021/05/15 03:15:25;;;;;;;16.93;6.30;;;;;;;12.51;100.00;100580.88;1580590;89;21173;-82
2021/05/15 03:17:55;;;;;;;9.78;5.85;;;;;;;12.57;100.00;100584.27;1565795;89;21194;-82
2021/05/15 03:20:27;;;;;;;14.33;6.42;;;;;;;12.72;100.00;100586.08;1597858;88;21108;-81
2021/05/15 03:22:56;;;;;;;11.38;6.58;;;;;;;12.86;100.00;100587.50;1577453;90;21117;-84
2021/05/15 03:25:23;;;;;;;8.53;5.92;;;;;;;13.04;100.00;100592.11;1595865;89;21156;-82
2021/05/15 03:27:50;;;;;;;8.40;5.50;;;;;;;13.17;100.00;100583.58;1581823;90;21196;-83
2021/05/15 03:30:18;;;;;;;20.82;6.22;;;;;;;13.30;100.00;100583.80;1561770;91;21045;-82
2021/05/15 03:32:45;;;;;;;7.67;4.70;;;;;;;13.44;100.00;100580.83;1574171;89;21108;-83
2021/05/15 03:35:15;;;;;;;12.93;4.70;;;;;;;13.55;100.00;100578.57;1607757;89;21044;-81
2021/05/15 03:37:42;;;;;;;7.35;4.37;;;;;;;13.63;100.00;100582.64;1597397;88;21681;-82
2021/05/15 03:40:10;;;;;;;20.43;5.20;;;;;;;13.70;100.00;100586.37;1596793;88;21109;-82
2021/05/15 03:42:38;;;;;;;6.97;4.47;;;;;;;13.76;100.00;100588.92;1569604;89;22079;-82
2021/05/15 03:45:08;;;;;;;11.97;4.90;;;;;;;13.84;100.00;100582.52;1554281;91;21087;-83
2021/05/15 03:47:37;;;;;;;16.52;5.00;;;;;;;13.91;100.00;100582.81;1597683;89;21080;-82
2021/05/15 03:50:06;;;;;;;12.25;5.10;;;;;;;13.99;100.00;100582.11;1576493;90;21115;-84
2021/05/15 03:52:34;;;;;;;25.35;5.45;;;;;;;14.04;100.00;100581.23;1577081;89;21924;-82
2021/05/15 03:55:01;;;;;;;7.17;4.70;;;;;;;14.06;100.00;100585.82;1561154;89;21056;-82
2021/05/15 03:57:28;;;;;;;10.25;4.60;;;;;;;14.08;100.00;100585.20;1549110;90;21540;-81
2021/05/15 03:59:55;;;;;;;7.10;4.90;;;;;;;14.09;100.00;100582.94;1565424;90;21640;-81
2021/05/15 04:02:23;;;;;;;10.30;4.95;;;;;;;14.12;100.00;100579.20;1564800;90;21247;-82
2021/05/15 04:04:51;;;;;;;8.68;5.00;;;;;;;14.15;100.00;100584.98;1600928;88;21106;-81
2021/05/15 04:07:20;;;;;;;6.67;5.10;;;;;;;14.17;100.00;100577.02;1601539;88;21138;-84
2021/05/15 04:09:47;;;;;;;10.78;5.42;;;;;;;14.16;100.00;100580.09;1615168;87;21433;-81
2021/05/15 04:12:16;;;;;;;15.80;6.08;;;;;;;14.19;100.00;100586.37;1592181;88;21066;-82
2021/05/15 04:14:47;;;;;;;14.98;5.40;;;;;;;14.29;100.00;100585.55;1582310;89;21138;-82
2021/05/15 04:17:19;;;;;;;12.43;4.90;;;;;;;14.42;100.00;100578.20;1608824;89;20981;-84
2021/05/15 04:19:41;;;;;;;16.87;5.40;;;;;;;14.58;100.00;100585.95;1609149;88;21055;-84
2021/05/15 04:22:09;;;;;;;9.45;4.60;;;;;;;14.73;100.00;100590.30;1610968;87;21127;-83
2021/05/15 04:24:36;;;;;;;9.03;4.40;;;;;;;14.85;100.00;100586.52;1591883;89;21108;-82
2021/05/15 04:27:05;;;;;;;26.50;5.12;;;;;;;14.96;100.00;100591.58;1590894;89;21132;-83
2021/05/15 04:29:33;;;;;;;5.10;3.90;;;;;;;15.09;100.00;100592.56;1591418;88;21171;-82
2021/05/15 04:32:00;;;;;;;6.92;4.55;;;;;;;15.23;100.00;100588.61;1570243;89;21620;-82
2021/05/15 04:34:29;;;;;;;6.85;4.30;;;;;;;15.34;100.00;100581.05;1591147;89;21155;-81
2021/05/15 04:36:59;;;;;;;9.00;5.35;;;;;;;15.46;100.00;100581.66;1576844;90;21111;-83
2021/05/15 04:39:32;;;;;;;6.90;4.77;;;;;;;15.52;100.00;100577.13;1593146;89;21167;-83
2021/05/15 04:42:01;;;;;;;5.35;3.98;;;;;;;15.58;100.00;100581.77;1576737;89;21017;-80
2021/05/15 04:44:28;;;;;;;9.53;4.85;;;;;;;15.68;100.00;100583.50;1583371;89;21063;-82
2021/05/15 04:46:56;;;;;;;8.83;4.50;;;;;;;15.76;100.00;100597.52;1592291;88;21621;-83
2021/05/15 04:49:23;;;;;;;5.78;4.83;;;;;;;15.83;100.00;100604.79;1546925;90;21240;-83
2021/05/15 04:51:50;;;;;;;14.75;5.62;;;;;;;15.88;100.00;100601.28;1560980;90;21159;-82
2021/05/15 04:54:17;;;;;;;10.28;4.75;;;;;;;15.97;100.00;100603.47;1579418;89;21140;-83
2021/05/15 04:56:44;;;;;;;14.20;4.92;;;;;;;16.06;100.00;100603.88;1599841;88;21112;-83
2021/05/15 04:59:11;;;;;;;8.75;4.08;;;;;;;16.14;100.00;100608.39;1571832;89;21031;-83
2021/05/15 05:01:39;;;;;;;8.08;4.47;;;;;;;16.22;100.00;100601.89;1576424;89;21076;-82
2021/05/15 05:04:08;;;;;;;8.78;4.53;;;;;;;16.29;100.00;100601.61;1580061;89;21754;-83
2021/05/15 05:06:35;;;;;;;4.58;4.10;;;;;;;16.38;100.00;100592.78;1600165;88;21092;-83
2021/05/15 05:09:03;;;;;;;6.25;4.40;;;;;;;16.48;100.00;100591.86;1566821;89;21100;-84
2021/05/15 05:11:30;;;;;;;10.40;4.40;;;;;;;16.58;100.00;100589.97;1565298;90;21115;-82
2021/05/15 05:13:57;;;;;;;6.42;4.05;;;;;;;16.66;100.00;100591.33;1580422;89;22048;-84
2021/05/15 05:16:24;;;;;;;13.60;4.53;;;;;;;16.76;100.00;100591.70;1609097;88;21164;-84
2021/05/15 05:18:51;;;;;;;8.85;4.37;;;;;;;16.86;100.00;100599.00;1577769;88;21164;-83
2021/05/15 05:21:18;;;;;;;8.05;4.87;;;;;;;16.95;100.00;100603.32;1590847;87;21090;-83
2021/05/15 05:23:45;;;;;;;12.25;5.33;;;;;;;17.06;100.00;100607.50;1609664;88;21122;-83
2021/05/15 05:26:13;;;;;;;14.18;5.12;;;;;;;17.14;100.00;100602.75;1588990;89;21514;-84
2021/05/15 05:28:42;;;;;;;10.05;4.50;;;;;;;17.25;100.00;100606.89;1567296;90;21471;-83
2021/05/15 05:31:11;;;;;;;8.75;5.05;;;;;;;17.31;100.00;100608.41;1598181;87;21255;-84
2021/05/15 05:33:39;;;;;;;12.88;5.05;;;;;;;17.38;100.00;100603.34;1566314;90;21057;-82
2021/05/15 05:36:07;;;;;;;9.80;5.62;;;;;;;17.44;100.00;100604.00;1596827;88;21108;-82
2021/05/15 05:38:36;;;;;;;14.20;5.35;;;;;;;17.54;100.00;100610.44;1567312;90;21147;-83
2021/05/15 05:41:03;;;;;;;9.58;5.20;;;;;;;17.63;100.00;100612.11;1544914;90;21693;-82
2021/05/15 05:43:30;;;;;;;5.97;4.78;;;;;;;17.72;100.00;100606.86;1554747;90;21181;-83
2021/05/15 05:45:57;;;;;;;15.28;4.42;;;;;;;17.78;100.00;100611.47;1602644;88;21179;-81
2021/05/15 05:48:24;;;;;;;17.32;4.87;;;;;;;17.83;100.00;100605.20;1598088;88;21098;-81
2021/05/15 05:50:51;;;;;;;7.05;4.90;;;;;;;17.90;100.00;100608.02;1598030;88;21127;-82
2021/05/15 05:53:18;;;;;;;7.87;4.70;;;;;;;17.95;100.00;100613.61;1587593;88;21740;-82
2021/05/15 05:55:45;;;;;;;6.50;4.35;;;;;;;18.05;100.00;100614.81;1588512;89;21073;-83
2021/05/15 05:58:12;;;;;;;8.25;4.08;;;;;;;18.13;100.00;100616.14;1608386;88;21076;-83
2021/05/15 06:00:39;;;;;;;5.92;4.37;;;;;;;18.26;100.00;100614.32;1614924;88;21633;-82
2021/05/15 06:03:06;;;;;;;4.85;3.47;;;;;;;18.39;100.00;100615.11;1566392;89;22426;-83
2021/05/15 06:05:34;;;;;;;9.00;4.25;;;;;;;18.48;100.00;100611.47;1561460;91;21188;-83
2021/05/15 06:08:08;;;;;;;11.45;3.67;;;;;;;18.57;100.00;100613.11;1588618;89;21079;-83
2021/05/15 06:10:37;;;;;;;8.23;3.90;;;;;;;18.65;100.00;100609.64;1600519;88;21117;-84
2021/05/15 06:13:05;;;;;;;7.60;3.65;;;;;;;18.70;100.00;100611.78;1571494;89;21139;-82
2021/05/15 06:15:33;;;;;;;9.60;4.28;;;;;;;18.75;100.00;100616.04;1606104;88;21087;-81
2021/05/15 06:18:00;;;;;;;4.65;4.15;;;;;;;18.84;100.00;100615.50;1600796;88;21150;-84
2021/05/15 06:20:28;;;;;;;4.35;3.67;;;;;;;18.95;100.00;100619.14;1542311;90;21156;-82
2021/05/15 06:22:56;;;;;;;5.90;3.80;;;;;;;19.06;100.00;100614.82;1559444;90;21149;-82
2021/05/15 06:25:24;;;;;;;5.10;3.83;;;;;;;19.19;100.00;100614.24;1544165;91;21107;-84
2021/05/15 06:27:51;;;;;;;6.35;3.22;;;;;;;19.29;100.00;100614.53;1619728;87;21084;-83
2021/05/15 06:30:19;;;;;;;4.80;3.70;;;;;;;19.38;100.00;100616.98;1587677;90;21127;-82
2021/05/15 06:32:47;;;;;;;3.85;3.37;;;;;;;19.48;100.00;100614.59;1551959;90;21263;-83
2021/05/15 06:35:15;;;;;;;6.47;3.10;;;;;;;19.55;100.00;100612.89;1567995;91;21116;-81
2021/05/15 06:37:42;;;;;;;3.37;2.90;;;;;;;19.63;100.00;100608.88;1558887;90;22186;-82
2021/05/15 06:40:10;;;;;;;3.50;3.20;;;;;;;19.72;100.00;100613.63;1589305;88;21160;-83
2021/05/15 06:42:37;;;;;;;4.50;2.87;;;;;;;19.82;100.00;100615.55;1609655;87;21123;-82
2021/05/15 06:45:06;;;;;;;4.70;2.90;;;;;;;19.94;100.00;100615.15;1596395;88;22334;-83
2021/05/15 06:47:33;;;;;;;3.58;2.80;;;;;;;20.03;100.00;100619.38;1586593;89;21657;-81
2021/05/15 06:50:05;;;;;;;3.20;2.90;;;;;;;20.12;100.00;100616.99;1597474;89;21061;-84
2021/05/15 06:52:32;;;;;;;3.67;3.15;;;;;;;20.21;100.00;100620.89;1596188;89;21091;-83
2021/05/15 06:54:59;;;;;;;4.83;2.92;;;;;;;20.30;100.00;100626.43;1607432;88;21677;-84
2021/05/15 06:57:26;;;;;;;8.13;3.35;;;;;;;20.40;100.00;100627.48;1595911;88;21047;-83
2021/05/15 06:59:53;;;;;;;6.70;3.08;;;;;;;20.49;100.00;100627.73;1597598;89;21567;-84
2021/05/15 07:02:20;;;;;;;6.30;2.72;;;;;;;20.55;100.00;100624.36;1576449;89;21714;-83
2021/05/15 07:04:50;;;;;;;5.50;2.98;;;;;;;20.63;100.00;100618.17;1586947;89;21106;-82
2021/05/15 07:07:16;;;;;;;10.00;3.15;;;;;;;20.71;100.00;100624.67;1582227;88;21793;-84
2021/05/15 07:09:44;;;;;;;6.28;3.20;;;;;;;20.82;100.00;100626.59;1611463;88;21704;-85
2021/05/15 07:12:12;;;;;;;6.50;2.80;;;;;;;20.92;100.00;100625.81;1584278;89;21564;-83
2021/05/15 07:14:40;;;;;;;6.37;2.80;;;;;;;21.02;100.00;100630.82;1581131;89;21538;-85
2021/05/15 07:17:08;;;;;;;3.85;2.58;;;;;;;21.13;100.00;100635.66;1586453;88;21614;-83
2021/05/15 07:19:35;;;;;;;4.67;2.80;;;;;;;21.20;100.00;100647.15;1597446;89;21088;-84
2021/05/15 07:22:02;;;;;;;5.50;2.77;;;;;;;21.27;100.00;100650.70;1597427;88;21156;-83
2021/05/15 07:24:30;;;;;;;5.42;2.65;;;;;;;21.37;100.00;100649.59;1567906;90;21174;-84
2021/05/15 07:26:58;;;;;;;5.03;2.83;;;;;;;21.48;100.00;100653.06;1586814;89;21100;-82
2021/05/15 07:29:25;;;;;;;4.12;2.70;;;;;;;21.64;100.00;100649.89;1577750;90;21519;-83
2021/05/15 07:31:52;;;;;;;2.52;2.33;;;;;;;21.79;100.00;100655.16;1557907;90;21148;-82
2021/05/15 07:34:19;;;;;;;3.70;2.92;;;;;;;21.88;99.34;100655.35;1591431;89;21109;-83
2021/05/15 07:36:47;;;;;;;7.03;2.77;;;;;;;21.93;100.00;100647.64;1586713;89;21121;-82
2021/05/15 07:39:16;;;;;;;5.20;2.37;;;;;;;22.01;95.92;100648.03;1588078;89;21673;-85
2021/05/15 07:41:43;;;;;;;2.92;2.40;;;;;;;22.10;82.59;100654.85;1597612;88;21109;-85
2021/05/15 07:44:10;;;;;;;5.55;2.67;;;;;;;22.19;89.83;100647.57;1593413;89;21609;-84
2021/05/15 07:46:39;;;;;;;4.45;2.35;;;;;;;22.29;90.67;100652.53;1579657;89;21160;-83
2021/05/15 07:49:07;;;;;;;2.80;1.87;;;;;;;22.38;84.09;100654.88;1598280;88;21075;-82
2021/05/15 07:51:34;;;;;;;6.72;2.22;;;;;;;22.44;80.30;100661.25;1575770;90;21131;-80
2021/05/15 07:54:01;;;;;;;10.25;2.50;;;;;;;22.48;78.13;100662.52;1595596;88;21040;-80
2021/05/15 07:56:29;;;;;;;10.15;2.40;;;;;;;22.55;79.78;100654.62;1580801;89;21140;-82
2021/05/15 07:58:56;;;;;;;4.40;1.98;;;;;;;22.64;79.01;100652.62;1558613;90;21624;-81
2021/05/15 08:01:23;;;;;;;5.03;1.95;;;;;;;22.70;70.18;100657.14;1599944;89;21104;-81
2021/05/15 08:03:50;;;;;;;3.52;1.80;;;;;;;22.74;74.22;100657.58;1548253;91;21120;-82
2021/05/15 08:06:17;;;;;;;3.52;2.20;;;;;;;22.80;67.91;100652.80;1575070;89;21131;-84
2021/05/15 08:08:45;;;;;;;5.05;2.00;;;;;;;22.85;69.55;100657.04;1575158;89;21158;-83
2021/05/15 08:11:12;;;;;;;3.62;1.90;;;;;;;22.87;66.41;100659.49;1575406;89;21071;-83
2021/05/15 08:13:40;;;;;;;5.83;1.90;;;;;;;22.91;67.53;100660.23;1576544;90;22083;-81
2021/05/15 08:16:07;;;;;;;2.52;1.80;;;;;;;23.04;66.25;100656.83;1575004;89;21121;-81
2021/05/15 08:18:34;;;;;;;3.20;1.98;;;;;;;23.16;70.66;100663.20;1576788;91;21041;-81
2021/05/15 08:21:01;;;;;;;7.28;2.12;;;;;;;23.21;67.48;100666.63;1573348;89;21064;-82
2021/05/15 08:23:28;;;;;;;5.85;2.15;;;;;;;23.30;62.28;100668.10;1598097;88;21542;-82
2021/05/15 08:25:55;;;;;;;13.95;2.47;;;;;;;23.37;68.94;100668.14;1590780;89;21191;-83
2021/05/15 08:28:25;;;;;;;12.50;2.83;;;;;;;23.47;62.08;100669.89;1573848;89;21140;-86
2021/05/15 08:30:54;;;;;;;;;;;;;;;23.51;62.22;100674.81;1601376;88;21573;-85
2021/05/15 08:33:21;;;;;;;5.92;2.20;;;;;;;23.56;62.75;100663.91;1580792;88;21024;-83
2021/05/15 08:35:48;;;;;;;4.03;2.40;;;;;;;23.65;62.73;100669.84;1585468;88;21113;-81
2021/05/15 08:38:16;;;;;;;5.37;2.10;;;;;;;23.62;59.16;100674.25;1577542;88;21182;-83
2021/05/15 08:40:44;;;;;;;5.78;2.27;;;;;;;23.53;59.82;100670.94;1578317;88;21196;-83
2021/05/15 08:43:16;;;;;;;9.38;2.47;;;;;;;23.43;62.50;100672.65;1594597;88;21621;-83
2021/05/15 08:45:46;;;;;;;6.90;2.30;;;;;;;23.40;62.13;100670.90;1594503;88;21067;-86
2021/05/15 08:48:13;;;;;;;1.90;1.70;;;;;;;23.44;64.48;100677.44;1615499;88;21119;-85
2021/05/15 08:50:41;;;;;;;12.70;2.50;;;;;;;23.56;67.90;100673.70;1615558;87;21657;-86
2021/05/15 08:53:09;;;;;;;3.83;1.90;;;;;;;23.73;66.23;100664.86;1615555;88;21626;-86
2021/05/15 08:55:36;;;;;;;4.97;1.67;;;;;;;23.91;59.96;100665.60;1563614;90;21083;-84
2021/05/15 08:58:03;;;;;;;2.02;1.60;;;;;;;24.04;55.79;100672.81;1555746;91;21105;-84
2021/05/15 09:00:41;;;;;;;4.37;1.87;;;;;;;24.15;60.06;100666.90;1594402;88;21591;-84
2021/05/15 09:03:12;;;;;;;2.12;1.90;;;;;;;24.23;56.30;100668.02;1603398;88;21310;-93
2021/05/15 09:05:46;;;;;;;3.05;1.72;;;;;;;24.32;54.93;100660.64;1594760;89;21067;-86
2021/05/15 09:08:15;;;;;;;5.80;2.10;;;;;;;24.35;57.70;100659.41;1591529;89;21598;-90
2021/05/15 09:10:46;;;;;;;4.67;1.90;;;;;;;24.43;54.52;100669.03;1577114;90;21719;-85
2021/05/15 09:13:22;;;;;;;4.70;1.55;;;;;;;24.51;51.15;100654.99;1593555;89;21091;-86
2021/05/15 09:16:01;;;;;;;3.15;1.75;;;;;;;24.55;54.62;100662.88;1599749;89;21096;-87
2021/05/15 09:18:34;;;;;;;3.25;1.85;;;;;;;24.62;55.27;100656.73;1594848;88;21088;-85
2021/05/15 09:21:07;;;;;;;2.35;1.67;;;;;;;24.75;51.98;100659.38;1593011;89;21100;-85
2021/05/15 09:23:39;;;;;;;3.98;1.82;;;;;;;24.80;54.90;100661.42;1578022;90;21115;-84
2021/05/15 09:26:14;;;;;;;3.42;1.50;;;;;;;24.91;53.58;100659.95;1572109;89;21530;-85
2021/05/15 09:28:55;;;;;;;5.10;1.72;;;;;;;25.03;48.38;100656.95;1568701;90;21091;-85
2021/05/15 09:31:29;;;;;;;3.55;1.77;;;;;;;25.13;48.60;100645.84;1586634;89;21159;-88
2021/05/15 09:34:04;;;;;;;4.05;1.60;;;;;;;25.18;48.84;100656.17;1551156;91;21140;-84
2021/05/15 09:36:43;;;;;;;1.80;1.57;;;;;;;25.24;51.27;100655.02;1554701;90;21116;-89
2021/05/15 09:39:20;;;;;;;7.87;1.57;;;;;;;25.28;48.16;100656.25;1551183;89;21079;-85
2021/05/15 09:41:53;;;;;;;4.15;1.60;;;;;;;25.32;47.89;100652.91;1584775;89;21140;-84
2021/05/15 09:44:37;;;;;;;2.80;1.50;;;;;;;25.41;49.15;100654.03;1598687;89;21065;-85
2021/05/15 09:47:07;;;;;;;4.20;1.60;;;;;;;25.55;52.40;100648.13;1596793;88;21551;-86
2021/05/15 09:49:38;;;;;;;6.12;1.80;;;;;;;25.73;47.59;100650.05;1590656;89;21091;-84
2021/05/15 09:52:08;;;;;;;4.50;1.50;;;;;;;25.81;45.83;100649.80;1552850;90;21099;-87
2021/05/15 09:54:42;;;;;;;1.90;1.30;;;;;;;25.81;44.74;100655.97;1584278;89;21591;-85
2021/05/15 09:57:16;;;;;;;4.53;1.82;;;;;;;25.79;45.03;100650.02;1582988;89;21108;-83
2021/05/15 15:12:06;;;;;;;7.30;1.32;;;;;;;24.75;39.69;100558.21;1149882;122;21323;-86
2021/05/15 18:39:28;;;;;;;2.60;2.40;;;;;;;17.50;100.00;100612.56;1222804;115;21399;-86
2021/05/15 19:01:13;;;;;;;23.07;5.30;;;;;;;17.11;100.00;100614.89;1252601;111;21268;-87
2021/05/15 22:28:39;;;;;;;22.17;8.38;;;;;;;14.69;100.00;100625.60;1179311;114;21235;-85
2021/05/15 22:31:07;;;;;;;28.52;9.03;;;;;;;14.56;100.00;100625.41;1291740;93;21220;-86
2021/05/15 22:33:37;;;;;;;18.75;9.08;;;;;;;14.53;100.00;100619.63;1497374;94;21151;-83
2021/05/15 22:36:15;;;;;;;19.75;9.18;;;;;;;14.53;100.00;100626.17;1496921;95;21055;-85
2021/05/15 22:38:43;;;;;;;31.65;9.90;;;;;;;14.54;100.00;100617.34;1496891;95;21636;-84
2021/05/15 22:41:12;;;;;;;21.90;9.63;;;;;;;14.56;100.00;100616.70;1508060;93;21640;-86
2021/05/15 22:43:40;;;;;;;23.32;9.65;;;;;;;14.57;100.00;100611.81;1508196;92;21154;-86
2021/05/15 22:46:08;;;;;;;16.27;8.75;;;;;;;14.59;100.00;100613.81;1508043;95;21115;-83
2021/05/15 22:48:39;;;;;;;13.38;8.25;;;;;;;14.60;100.00;100617.59;1496828;94;21171;-84
2021/05/15 22:51:16;;;;;;;17.30;8.13;;;;;;;14.57;100.00;100618.36;1497163;93;21179;-85
2021/05/15 22:53:50;;;;;;;13.80;8.03;;;;;;;14.53;100.00;100613.07;1497007;92;21147;-86
2021/05/15 22:56:18;;;;;;;15.72;7.85;;;;;;;14.50;100.00;100614.19;1496800;95;21775;-85
2021/05/15 22:58:46;;;;;;;15.88;7.50;;;;;;;14.44;100.00;100618.19;1496868;95;21139;-86
2021/05/15 23:01:16;;;;;;;12.82;7.17;;;;;;;14.41;100.00;100625.50;1496901;94;21718;-84
2021/05/15 23:03:45;;;;;;;15.05;6.83;;;;;;;14.38;100.00;100625.77;1516005;92;21546;-83
2021/05/15 23:06:13;;;;;;;16.35;7.15;;;;;;;14.33;100.00;100630.97;1508108;92;21665;-83
2021/05/15 23:08:41;;;;;;;11.40;6.97;;;;;;;14.30;100.00;100623.87;1515843;94;21111;-86
2021/05/15 23:11:08;;;;;;;12.33;7.30;;;;;;;14.29;100.00;100628.27;1508158;93;21569;-84
2021/05/15 23:13:35;;;;;;;7.85;6.20;;;;;;;14.26;100.00;100629.84;1496898;94;21143;-85
2021/05/15 23:16:04;;;;;;;16.48;7.28;;;;;;;14.21;100.00;100633.37;1508000;94;21712;-84
2021/05/15 23:18:33;;;;;;;10.00;6.50;;;;;;;14.16;100.00;100637.70;1497219;94;21586;-86
2021/05/15 23:21:00;;;;;;;8.60;6.12;;;;;;;14.12;100.00;100636.81;1508147;92;21577;-84
2021/05/15 23:23:27;;;;;;;9.58;6.75;;;;;;;14.02;100.00;100630.27;1496923;94;21145;-83
2021/05/15 23:25:54;;;;;;;11.93;6.55;;;;;;;13.95;100.00;100631.29;1496906;94;21825;-83
2021/05/15 23:28:22;;;;;;;8.35;6.30;;;;;;;13.91;100.00;100635.16;1496754;95;21048;-83
2021/05/15 23:30:51;;;;;;;10.98;6.25;;;;;;;13.92;100.00;100637.28;1488923;95;21067;-84
2021/05/15 23:33:18;;;;;;;12.23;6.25;;;;;;;13.91;100.00;100637.78;1488039;95;21112;-86
2021/05/15 23:35:46;;;;;;;9.53;6.72;;;;;;;13.91;100.00;100647.41;1494963;94;21139;-86
2021/05/15 23:38:13;;;;;;;12.25;6.78;;;;;;;13.91;100.00;100635.62;1490696;93;21593;-85
2021/05/15 23:40:41;;;;;;;16.82;6.72;;;;;;;13.91;100.00;100639.55;1501783;94;21136;-86
2021/05/15 23:43:08;;;;;;;16.97;7.12;;;;;;;13.93;100.00;100640.25;1494991;93;21223;-84
2021/05/15 23:45:40;;;;;;;14.50;6.90;;;;;;;13.95;100.00;100637.02;1507736;94;21767;-83
2021/05/15 23:48:06;;;;;;;11.63;7.05;;;;;;;13.98;100.00;100629.72;1503092;94;21279;-85